createdAt,value
2022-11-29T00:01:02.992Z,8.30
2022-11-29T00:03:29.785Z,8.30
2022-11-29T00:05:56.610Z,8.30
2022-11-29T00:08:24.347Z,8.30
2022-11-29T00:10:50.984Z,8.30
2022-11-29T00:13:17.850Z,8.30
2022-11-29T00:15:44.609Z,8.30
2022-11-29T00:18:11.295Z,8.30
2022-11-29T00:20:39.199Z,8.30
2022-11-29T00:23:06.319Z,8.20
2022-11-29T00:25:32.983Z,8.30
2022-11-29T00:27:59.669Z,8.20
2022-11-29T00:30:26.367Z,8.30
2022-11-29T00:32:53.059Z,8.30
2022-11-29T00:35:19.714Z,8.30
2022-11-29T00:37:46.376Z,8.30
2022-11-29T00:40:13.131Z,8.30
2022-11-29T00:42:39.788Z,8.30
2022-11-29T00:45:07.069Z,8.50
2022-11-29T00:47:33.737Z,8.40
2022-11-29T00:50:00.428Z,8.40
2022-11-29T00:52:27.110Z,8.40
2022-11-29T00:54:53.762Z,8.30
2022-11-29T00:57:20.551Z,8.30
2022-11-29T00:59:47.197Z,8.30
2022-11-29T01:02:13.920Z,8.20
2022-11-29T01:04:40.660Z,8.30
2022-11-29T01:07:07.415Z,8.30
2022-11-29T01:09:34.135Z,8.30
2022-11-29T01:12:00.801Z,8.30
2022-11-29T01:14:27.505Z,8.30
2022-11-29T01:16:54.230Z,8.30
2022-11-29T01:19:20.913Z,8.30
2022-11-29T01:21:47.581Z,8.20
2022-11-29T01:24:14.275Z,8.30
2022-11-29T01:26:41.284Z,8.20
2022-11-29T01:29:08.009Z,8.20
2022-11-29T01:31:38.097Z,8.20
2022-11-29T01:34:06.962Z,8.20
2022-11-29T01:36:35.222Z,8.20
2022-11-29T01:39:03.901Z,8.20
2022-11-29T01:41:33.378Z,8.20
2022-11-29T01:44:03.413Z,8.20
2022-11-29T01:46:38.457Z,8.20
2022-11-29T01:49:35.732Z,8.20
2022-11-29T01:52:29.895Z,8.30
2022-11-29T01:55:00.235Z,8.20
2022-11-29T01:57:27.913Z,8.20
2022-11-29T02:00:00.386Z,8.20
2022-11-29T02:02:36.597Z,8.20
2022-11-29T02:05:04.475Z,8.20
2022-11-29T02:07:31.653Z,8.10
2022-11-29T02:09:58.601Z,8.20
2022-11-29T02:12:25.225Z,8.20
2022-11-29T02:15:10.696Z,8.10
2022-11-29T02:17:54.949Z,8.10
2022-11-29T02:20:52.351Z,8.10
2022-11-29T02:23:40.557Z,8.10
2022-11-29T02:26:31.230Z,8.10
2022-11-29T02:29:18.107Z,8.10
2022-11-29T02:32:22.161Z,8.10
2022-11-29T02:35:01.669Z,8.10
2022-11-29T02:37:57.317Z,8.10
2022-11-29T02:40:49.897Z,8.10
2022-11-29T02:43:32.175Z,8.10
2022-11-29T02:46:04.666Z,8.10
2022-11-29T02:49:09.004Z,8.10
2022-11-29T02:52:04.797Z,8.10
2022-11-29T02:54:51.491Z,8.10
2022-11-29T02:57:18.131Z,8.10
2022-11-29T02:59:50.866Z,8.10
2022-11-29T03:02:35.787Z,8.10
2022-11-29T03:05:51.245Z,8.10
2022-11-29T03:08:35.349Z,8.10
2022-11-29T03:11:07.151Z,8.10
2022-11-29T03:13:57.120Z,8.10
2022-11-29T03:16:43.773Z,8.10
2022-11-29T03:19:34.505Z,8.20
2022-11-29T03:22:11.526Z,8.10
2022-11-29T03:25:07.889Z,8.10
2022-11-29T03:28:01.434Z,8.10
2022-11-29T03:30:32.317Z,8.10
2022-11-29T03:33:08.680Z,8.10
2022-11-29T03:35:47.923Z,8.00
2022-11-29T03:38:23.675Z,8.00
2022-11-29T03:40:54.773Z,8.00
2022-11-29T03:43:31.325Z,8.00
2022-11-29T03:46:04.371Z,8.00
2022-11-29T03:48:39.706Z,8.00
2022-11-29T03:51:47.768Z,8.00
2022-11-29T03:54:22.299Z,8.10
2022-11-29T03:56:49.311Z,8.00
2022-11-29T03:59:44.780Z,8.00
2022-11-29T04:02:48.220Z,8.00
2022-11-29T04:05:23.152Z,7.90
2022-11-29T04:08:10.207Z,7.90
2022-11-29T04:10:55.374Z,7.80
2022-11-29T04:13:35.513Z,7.80
2022-11-29T04:16:13.926Z,7.70
2022-11-29T04:19:04.001Z,7.70
2022-11-29T04:21:31.672Z,7.60
2022-11-29T04:24:21.277Z,7.60
2022-11-29T04:26:47.952Z,7.60
2022-11-29T04:29:36.141Z,7.50
2022-11-29T04:32:11.518Z,7.60
2022-11-29T04:35:07.595Z,7.60
2022-11-29T04:38:12.430Z,7.60
2022-11-29T04:41:06.783Z,7.50
2022-11-29T04:43:51.682Z,7.50
2022-11-29T04:46:55.781Z,7.50
2022-11-29T04:50:05.286Z,7.50
2022-11-29T04:53:15.370Z,7.50
2022-11-29T04:55:59.324Z,7.50
2022-11-29T04:58:42.044Z,7.50
2022-11-29T05:01:17.987Z,7.50
2022-11-29T05:03:55.448Z,7.50
2022-11-29T05:06:39.046Z,7.50
2022-11-29T05:09:17.544Z,7.50
2022-11-29T05:12:25.154Z,7.60
2022-11-29T05:15:09.803Z,7.60
2022-11-29T05:18:24.438Z,7.50
2022-11-29T05:21:05.953Z,7.60
2022-11-29T05:23:51.100Z,7.60
2022-11-29T05:26:33.663Z,7.60
2022-11-29T05:29:09.985Z,7.50
2022-11-29T05:32:13.432Z,7.60
2022-11-29T05:35:17.345Z,7.40
2022-11-29T05:37:50.600Z,7.40
2022-11-29T05:40:27.193Z,7.40
2022-11-29T05:43:18.344Z,7.30
2022-11-29T05:46:15.935Z,7.30
2022-11-29T05:48:56.653Z,7.20
2022-11-29T05:51:37.781Z,7.20
2022-11-29T05:54:42.228Z,7.20
2022-11-29T05:57:33.672Z,7.30
2022-11-29T06:00:02.967Z,7.30
2022-11-29T06:03:03.593Z,7.30
2022-11-29T06:05:51.651Z,7.40
2022-11-29T06:08:24.616Z,7.40
2022-11-29T06:11:16.623Z,7.40
2022-11-29T06:14:07.253Z,7.40
2022-11-29T06:16:56.933Z,7.40
2022-11-29T06:19:44.338Z,7.40
2022-11-29T06:22:23.046Z,7.50
2022-11-29T06:25:07.792Z,7.50
2022-11-29T06:28:08.814Z,7.60
2022-11-29T06:31:07.675Z,7.60
2022-11-29T06:33:46.628Z,7.60
2022-11-29T06:36:19.793Z,7.60
2022-11-29T06:38:46.833Z,7.60
2022-11-29T06:41:19.485Z,7.60
2022-11-29T06:43:46.584Z,7.50
2022-11-29T06:46:50.071Z,7.60
2022-11-29T06:49:35.888Z,7.50
2022-11-29T06:52:27.267Z,7.40
2022-11-29T06:55:27.192Z,7.40
2022-11-29T06:58:25.424Z,7.40
2022-11-29T07:01:10.335Z,7.40
2022-11-29T07:04:07.333Z,7.40
2022-11-29T07:06:35.583Z,7.40
2022-11-29T07:09:14.294Z,7.40
2022-11-29T07:11:42.132Z,7.40
2022-11-29T07:14:09.877Z,7.50
2022-11-29T07:17:06.472Z,7.50
2022-11-29T07:19:48.027Z,7.60
2022-11-29T07:22:20.532Z,7.50
2022-11-29T07:25:03.355Z,7.60
2022-11-29T07:27:35.822Z,7.60
2022-11-29T07:30:16.807Z,7.60
2022-11-29T07:33:11.143Z,7.50
2022-11-29T07:35:53.140Z,7.60
2022-11-29T07:38:53.822Z,7.60
2022-11-29T07:41:48.356Z,7.60
2022-11-29T07:44:27.719Z,7.70
2022-11-29T07:46:54.548Z,7.70
2022-11-29T07:49:21.276Z,7.70
2022-11-29T07:51:48.112Z,7.80
2022-11-29T07:54:18.291Z,7.80
2022-11-29T07:56:44.970Z,7.90
2022-11-29T07:59:12.848Z,8.00
2022-11-29T08:01:40.680Z,7.90
2022-11-29T08:04:08.711Z,7.90
2022-11-29T08:06:36.219Z,7.90
2022-11-29T08:09:04.102Z,7.90
2022-11-29T08:11:30.921Z,7.90
2022-11-29T08:13:59.148Z,7.90
2022-11-29T08:16:26.199Z,7.90
2022-11-29T08:18:53.470Z,8.00
2022-11-29T08:21:21.538Z,8.00
2022-11-29T08:23:49.419Z,7.90
2022-11-29T08:26:17.167Z,8.00
2022-11-29T08:28:44.605Z,8.00
2022-11-29T08:31:12.831Z,8.10
2022-11-29T08:33:42.574Z,8.10
2022-11-29T08:36:12.833Z,8.10
2022-11-29T08:38:40.373Z,8.10
2022-11-29T08:41:09.566Z,8.10
2022-11-29T08:43:36.658Z,8.10
2022-11-29T08:46:03.499Z,8.20
2022-11-29T08:48:30.307Z,8.20
2022-11-29T08:50:57.247Z,8.10
2022-11-29T08:53:42.707Z,8.10
2022-11-29T08:59:02.410Z,8.20
2022-11-29T09:01:29.425Z,8.30
2022-11-29T09:03:59.445Z,8.30
2022-11-29T09:06:27.946Z,8.30
2022-11-29T09:08:58.977Z,8.30
2022-11-29T09:11:27.453Z,8.30
2022-11-29T09:13:59.676Z,8.30
2022-11-29T09:16:29.688Z,8.40
2022-11-29T09:18:57.299Z,8.50
2022-11-29T09:21:25.901Z,8.60
2022-11-29T09:23:58.615Z,8.70
2022-11-29T09:26:29.073Z,8.70
2022-11-29T09:28:57.815Z,8.80
2022-11-29T09:31:24.530Z,8.80
2022-11-29T09:33:51.734Z,8.80
2022-11-29T09:36:22.563Z,8.80
2022-11-29T09:38:52.002Z,8.90
2022-11-29T09:41:48.486Z,9.00
2022-11-29T09:44:40.901Z,9.00
2022-11-29T09:47:10.519Z,9.10
2022-11-29T09:50:09.154Z,9.10
2022-11-29T09:52:47.598Z,9.10
2022-11-29T09:55:42.872Z,9.20
2022-11-29T09:58:15.366Z,9.20
2022-11-29T10:00:49.125Z,9.30
2022-11-29T10:03:38.107Z,9.30
2022-11-29T10:06:15.435Z,9.30
2022-11-29T10:08:52.105Z,9.40
2022-11-29T10:11:56.932Z,9.30
2022-11-29T10:14:29.930Z,9.40
2022-11-29T10:17:06.005Z,9.40
2022-11-29T10:19:47.875Z,9.40
2022-11-29T10:22:25.435Z,9.40
2022-11-29T10:24:57.464Z,9.40
2022-11-29T10:27:24.936Z,9.30
2022-11-29T10:29:52.646Z,9.20
2022-11-29T10:32:21.228Z,9.20
2022-11-29T10:34:49.363Z,9.10
2022-11-29T10:37:21.212Z,9.10
2022-11-29T10:40:04.065Z,9.10
2022-11-29T10:42:49.652Z,9.20
2022-11-29T10:45:25.505Z,9.20
2022-11-29T10:47:54.922Z,9.30
2022-11-29T10:50:25.116Z,9.30
2022-11-29T10:52:59.770Z,9.40
2022-11-29T10:55:30.782Z,9.40
2022-11-29T10:58:28.055Z,9.60
2022-11-29T11:00:59.369Z,9.80
2022-11-29T11:03:52.835Z,9.80
2022-11-29T11:06:44.955Z,9.90
2022-11-29T11:09:40.189Z,10.00
2022-11-29T11:12:14.549Z,9.90
2022-11-29T11:14:41.771Z,9.90
2022-11-29T11:17:32.780Z,9.80
2022-11-29T11:20:08.451Z,9.90
2022-11-29T11:22:39.819Z,9.80
2022-11-29T11:25:25.606Z,9.70
2022-11-29T11:27:52.679Z,9.70
2022-11-29T11:30:29.219Z,9.60
2022-11-29T11:33:09.102Z,9.50
2022-11-29T11:35:37.183Z,9.40
2022-11-29T11:38:03.941Z,9.40
2022-11-29T11:40:31.164Z,9.40
2022-11-29T11:43:01.201Z,9.50
2022-11-29T11:45:34.907Z,9.50
2022-11-29T11:48:13.392Z,9.60
2022-11-29T11:50:51.256Z,9.70
2022-11-29T11:53:36.484Z,9.70
2022-11-29T11:56:10.311Z,9.80
2022-11-29T11:58:56.890Z,9.80
2022-11-29T12:01:24.041Z,9.70
2022-11-29T12:04:07.644Z,9.60
2022-11-29T12:06:50.097Z,9.50
2022-11-29T12:09:45.144Z,9.50
2022-11-29T12:12:34.572Z,9.50
2022-11-29T12:15:29.088Z,9.40
2022-11-29T12:18:04.199Z,9.40
2022-11-29T12:20:39.529Z,9.40
2022-11-29T12:23:16.667Z,9.40
2022-11-29T12:25:49.563Z,9.40
2022-11-29T12:28:20.534Z,9.40
2022-11-29T12:31:05.839Z,9.40
2022-11-29T12:33:52.701Z,9.20
2022-11-29T12:36:44.024Z,9.20
2022-11-29T12:39:37.796Z,9.20
2022-11-29T12:42:24.073Z,9.30
2022-11-29T12:45:15.459Z,9.30
2022-11-29T12:48:00.588Z,9.40
2022-11-29T12:50:38.985Z,9.40
2022-11-29T12:53:26.736Z,9.40
2022-11-29T12:56:20.488Z,9.50
2022-11-29T12:59:08.306Z,9.50
2022-11-29T13:01:46.687Z,9.50
2022-11-29T13:04:21.783Z,9.50
2022-11-29T13:06:54.047Z,9.50
2022-11-29T13:09:39.880Z,9.50
2022-11-29T13:12:49.547Z,9.50
2022-11-29T13:15:18.160Z,9.60
2022-11-29T13:18:14.076Z,9.60
2022-11-29T13:21:21.263Z,9.70
2022-11-29T13:24:10.031Z,9.70
2022-11-29T13:26:39.100Z,9.70
2022-11-29T13:29:07.296Z,9.60
2022-11-29T13:31:34.503Z,9.60
2022-11-29T13:34:25.943Z,9.50
2022-11-29T13:37:36.476Z,9.50
2022-11-29T13:40:37.305Z,9.60
2022-11-29T13:43:30.297Z,9.40
2022-11-29T13:46:22.516Z,9.40
2022-11-29T13:48:51.815Z,9.40
2022-11-29T13:51:41.620Z,9.50
2022-11-29T13:54:30.840Z,9.50
2022-11-29T13:57:10.247Z,9.50
2022-11-29T13:59:45.774Z,9.50
2022-11-29T14:02:31.348Z,9.50
2022-11-29T14:04:58.567Z,9.50
2022-11-29T14:07:25.349Z,9.50
2022-11-29T14:10:28.453Z,9.40
2022-11-29T14:12:56.801Z,9.50
2022-11-29T14:15:28.184Z,9.30
2022-11-29T14:17:58.297Z,9.30
2022-11-29T14:20:25.186Z,9.30
2022-11-29T14:23:07.571Z,9.20
2022-11-29T14:25:51.494Z,9.10
2022-11-29T14:28:21.839Z,9.00
2022-11-29T14:30:51.675Z,9.00
2022-11-29T14:33:46.392Z,9.20
2022-11-29T14:36:22.236Z,9.20
2022-11-29T14:39:01.644Z,9.20
2022-11-29T14:41:50.450Z,9.20
2022-11-29T14:44:28.053Z,9.30
2022-11-29T14:47:07.187Z,9.20
2022-11-29T14:49:42.428Z,9.20
2022-11-29T14:52:09.065Z,9.10
2022-11-29T14:54:54.024Z,9.00
2022-11-29T14:57:47.046Z,9.10
2022-11-29T15:00:28.514Z,9.20
2022-11-29T15:03:00.920Z,9.20
2022-11-29T15:05:37.841Z,9.10
2022-11-29T15:08:41.882Z,9.10
2022-11-29T15:11:14.611Z,9.20
2022-11-29T15:14:05.531Z,9.20
2022-11-29T15:16:45.756Z,9.10
2022-11-29T15:19:30.784Z,9.20
2022-11-29T15:22:26.405Z,9.20
2022-11-29T15:24:57.356Z,9.10
2022-11-29T15:27:24.158Z,9.10
2022-11-29T15:29:52.284Z,9.00
2022-11-29T15:32:26.136Z,9.00
2022-11-29T15:34:55.461Z,9.00
2022-11-29T15:37:25.047Z,9.10
2022-11-29T15:40:10.525Z,9.10
2022-11-29T15:43:09.556Z,9.10
2022-11-29T15:45:38.779Z,9.10
2022-11-29T15:48:20.501Z,9.10
2022-11-29T15:51:33.528Z,9.00
2022-11-29T15:54:26.229Z,9.00
2022-11-29T15:56:55.648Z,9.00
2022-11-29T16:00:02.900Z,9.00
2022-11-29T16:02:34.555Z,9.00
2022-11-29T16:05:09.906Z,8.90
2022-11-29T16:07:39.314Z,8.80
2022-11-29T16:10:19.201Z,8.80
2022-11-29T16:13:07.095Z,8.80
2022-11-29T16:15:38.827Z,8.80
2022-11-29T16:18:11.787Z,8.70
2022-11-29T16:20:39.542Z,8.80
2022-11-29T16:23:14.559Z,8.80
2022-11-29T16:26:20.512Z,8.90
2022-11-29T16:28:50.082Z,8.90
2022-11-29T16:31:22.489Z,8.70
2022-11-29T16:33:51.308Z,8.50
2022-11-29T16:36:25.157Z,8.60
2022-11-29T16:38:55.140Z,8.60
2022-11-29T16:41:29.863Z,8.60
2022-11-29T16:43:57.995Z,8.50
2022-11-29T16:46:27.431Z,8.50
2022-11-29T16:48:55.771Z,8.50
2022-11-29T16:51:45.663Z,8.50
2022-11-29T16:54:24.738Z,8.50
2022-11-29T16:56:52.993Z,8.70
2022-11-29T16:59:27.096Z,8.70
2022-11-29T17:01:55.629Z,8.70
2022-11-29T17:04:24.354Z,8.60
2022-11-29T17:06:52.233Z,8.50
2022-11-29T17:09:27.124Z,8.50
2022-11-29T17:11:55.665Z,8.50
2022-11-29T17:14:22.608Z,8.50
2022-11-29T17:16:49.702Z,8.60
2022-11-29T17:19:17.400Z,8.70
2022-11-29T17:21:44.309Z,8.70
2022-11-29T17:24:17.332Z,8.70
2022-11-29T17:26:45.405Z,8.60
2022-11-29T17:29:16.109Z,8.50
2022-11-29T17:31:44.322Z,8.50
2022-11-29T17:34:11.083Z,8.50
2022-11-29T17:36:37.860Z,8.60
2022-11-29T17:39:05.343Z,8.50
2022-11-29T17:41:32.990Z,8.50
2022-11-29T17:44:00.114Z,8.60
2022-11-29T17:46:32.615Z,8.40
2022-11-29T17:49:00.901Z,8.50
2022-11-29T17:51:51.203Z,8.50
2022-11-29T17:54:15.101Z,8.50
2022-11-29T17:56:41.812Z,8.50
2022-11-29T17:59:08.523Z,8.50
2022-11-29T18:01:36.092Z,8.50
2022-11-29T18:04:05.421Z,8.50
2022-11-29T18:06:39.835Z,8.50
2022-11-29T18:09:08.856Z,8.40
2022-11-29T18:11:45.343Z,8.40
2022-11-29T18:14:15.822Z,8.30
2022-11-29T18:16:42.823Z,8.20
2022-11-29T18:19:12.365Z,8.30
2022-11-29T18:21:39.165Z,8.20
2022-11-29T18:24:07.070Z,8.20
2022-11-29T18:26:35.610Z,8.10
2022-11-29T18:29:02.357Z,8.00
2022-11-29T18:31:31.536Z,8.00
2022-11-29T18:34:00.838Z,8.00
2022-11-29T18:36:33.064Z,7.90
2022-11-29T18:39:05.977Z,7.90
2022-11-29T18:41:32.835Z,7.90
2022-11-29T18:44:01.899Z,7.90
2022-11-29T18:46:32.816Z,7.90
2022-11-29T18:49:00.942Z,7.90
2022-11-29T18:51:29.388Z,7.90
2022-11-29T18:53:56.988Z,7.80
2022-11-29T18:56:25.666Z,7.80
2022-11-29T18:59:03.831Z,7.70
2022-11-29T19:01:34.226Z,7.70
2022-11-29T19:04:01.943Z,7.70
2022-11-29T19:06:38.910Z,7.60
2022-11-29T19:09:11.091Z,7.60
2022-11-29T19:11:38.192Z,7.50
2022-11-29T19:14:11.192Z,7.50
2022-11-29T19:16:40.634Z,7.40
2022-11-29T19:19:07.593Z,7.30
2022-11-29T19:21:34.657Z,7.40
2022-11-29T19:24:05.322Z,7.30
2022-11-29T19:26:33.438Z,7.30
2022-11-29T19:29:01.145Z,7.20
2022-11-29T19:31:28.889Z,7.20
2022-11-29T19:33:57.059Z,7.20
2022-11-29T19:36:28.028Z,7.20
2022-11-29T19:38:55.187Z,7.10
2022-11-29T19:41:27.384Z,7.00
2022-11-29T19:43:56.491Z,6.90
2022-11-29T19:46:26.429Z,6.90
2022-11-29T19:48:54.883Z,6.90
2022-11-29T19:51:22.785Z,6.80
2022-11-29T19:53:53.260Z,6.80
2022-11-29T19:56:20.506Z,6.80
2022-11-29T19:58:48.562Z,6.80
2022-11-29T20:01:20.424Z,6.70
2022-11-29T20:03:47.221Z,6.70
2022-11-29T20:06:14.412Z,6.60
2022-11-29T20:08:42.224Z,6.70
2022-11-29T20:11:20.336Z,6.60
2022-11-29T20:13:56.832Z,6.60
2022-11-29T20:16:24.899Z,6.60
2022-11-29T20:18:52.894Z,6.70
2022-11-29T20:21:22.800Z,6.70
2022-11-29T20:23:49.704Z,6.70
2022-11-29T20:26:18.955Z,6.70
2022-11-29T20:28:46.337Z,6.60
2022-11-29T20:31:18.828Z,6.50
2022-11-29T20:33:47.236Z,6.60
2022-11-29T20:36:32.319Z,6.40
2022-11-29T20:39:28.535Z,6.40
2022-11-29T20:42:20.305Z,6.40
2022-11-29T20:44:58.651Z,6.40
2022-11-29T20:47:44.908Z,6.30
2022-11-29T20:50:25.910Z,6.20
2022-11-29T20:53:08.390Z,6.20
2022-11-29T20:55:42.487Z,6.20
2022-11-29T20:58:13.076Z,6.20
2022-11-29T21:00:39.735Z,6.20
2022-11-29T21:03:06.391Z,6.20
2022-11-29T21:05:33.242Z,6.30
2022-11-29T21:07:59.981Z,6.30
2022-11-29T21:10:26.713Z,6.30
2022-11-29T21:12:53.637Z,6.30
2022-11-29T21:15:20.768Z,6.30
2022-11-29T21:17:47.828Z,6.30
2022-11-29T21:20:22.125Z,6.20
2022-11-29T21:22:51.571Z,6.20
2022-11-29T21:25:35.348Z,6.10
2022-11-29T21:28:02.863Z,6.10
2022-11-29T21:30:29.657Z,6.10
2022-11-29T21:32:56.809Z,6.10
2022-11-29T21:35:23.553Z,6.10
2022-11-29T21:37:54.328Z,6.10
2022-11-29T21:40:20.961Z,6.10
2022-11-29T21:42:47.603Z,6.10
2022-11-29T21:45:15.776Z,6.10
2022-11-29T21:47:43.910Z,6.10
2022-11-29T21:50:11.780Z,6.10
2022-11-29T21:52:38.524Z,6.10
2022-11-29T21:55:05.852Z,6.10
2022-11-29T21:57:32.507Z,6.20
2022-11-29T21:59:59.134Z,6.20
2022-11-29T22:02:25.960Z,6.20
2022-11-29T22:04:52.694Z,6.10
2022-11-29T22:07:19.383Z,6.10
2022-11-29T22:09:46.020Z,6.10
2022-11-29T22:12:33.239Z,6.20
2022-11-29T22:14:59.307Z,6.20
2022-11-29T22:17:25.963Z,6.20
2022-11-29T22:19:52.626Z,6.20
2022-11-29T22:22:19.270Z,6.10
2022-11-29T22:24:46.310Z,6.10
2022-11-29T22:27:13.258Z,6.10
2022-11-29T22:29:39.899Z,6.10
2022-11-29T22:32:06.636Z,6.30
2022-11-29T22:34:33.331Z,6.20
2022-11-29T22:36:59.972Z,6.20
2022-11-29T22:39:26.629Z,6.30
2022-11-29T22:41:55.082Z,6.30
2022-11-29T22:44:22.884Z,6.30
2022-11-29T22:46:50.046Z,6.30
2022-11-29T22:49:16.772Z,6.20
2022-11-29T22:51:43.490Z,6.20
2022-11-29T22:54:17.848Z,6.30
2022-11-29T22:56:45.259Z,6.30
2022-11-29T22:59:12.123Z,6.30
2022-11-29T23:01:40.866Z,6.30
2022-11-29T23:04:10.735Z,6.30
2022-11-29T23:06:40.564Z,6.20
2022-11-29T23:09:17.040Z,6.20
2022-11-29T23:11:45.657Z,6.30
2022-11-29T23:14:12.877Z,6.30
2022-11-29T23:16:39.918Z,6.40
2022-11-29T23:19:06.631Z,6.40
2022-11-29T23:21:36.125Z,6.40
2022-11-29T23:24:03.194Z,6.40
2022-11-29T23:26:36.259Z,6.40
2022-11-29T23:29:04.128Z,6.40
2022-11-29T23:31:31.579Z,6.40
2022-11-29T23:33:58.439Z,6.40
2022-11-29T23:36:25.577Z,6.40
2022-11-29T23:38:52.449Z,6.50
2022-11-29T23:41:19.119Z,6.40
2022-11-29T23:43:45.795Z,6.40
2022-11-29T23:46:18.583Z,6.50
2022-11-29T23:48:45.642Z,6.50
2022-11-29T23:51:13.337Z,6.40
2022-11-29T23:53:41.060Z,6.40
2022-11-29T23:56:12.134Z,6.40
2022-11-29T23:58:39.085Z,6.40
